Jackson Hole, Wyoming
Current Conditions -  °F | °C
As of 5:59 PM on Monday 20 Oct 2014 (Local Time) from KJAC Reporting Station
Scattered Clouds Scattered Clouds  
Wind Chill: 61°   Ceiling: Unl
Heat Index: 61°   Visibility: 10mi
Dew Point: 30°   Wind: 5mph
Humidity: 31%   Direction: 170°S
Pressure: 30.04"   Gusts: NA
Location:  43.48°N, 110.761°W
Report Text: KJAC 202359Z 17004KT 10SM SCT100 16/M01 A3004
Loading
Personal Weather Stations






























Interactive Weather Map New forecast layout! Learn more

10-Day Weather Forecast

Advertisements
Track Severe Weather on mobile